createdAt,value
2023-01-26T00:03:33.229Z,99661.91
2023-01-26T00:06:22.608Z,99685.88
2023-01-26T00:09:14.521Z,99695.25
2023-01-26T00:12:01.711Z,99678.81
2023-01-26T00:14:51.651Z,99696.53
2023-01-26T00:17:38.776Z,99681.66
2023-01-26T00:20:26.389Z,99663.13
2023-01-26T00:23:13.504Z,99688.97
2023-01-26T00:26:01.548Z,99678.53
2023-01-26T00:28:49.227Z,99682.97
2023-01-26T00:31:36.362Z,99668.59
2023-01-26T00:34:23.430Z,99670.47
2023-01-26T00:37:10.568Z,99663.84
2023-01-26T00:39:57.671Z,99674.19
2023-01-26T00:42:44.851Z,99654.19
2023-01-26T00:45:32.196Z,99666.03
2023-01-26T00:48:19.299Z,99658.88
2023-01-26T00:51:06.408Z,99653.50
2023-01-26T00:53:53.495Z,99659.41
2023-01-26T00:56:40.604Z,99666.34
2023-01-26T00:59:27.839Z,99657.38
2023-01-26T01:02:15.008Z,99668.41
2023-01-26T01:05:02.095Z,99656.28
2023-01-26T01:07:49.151Z,99648.69
2023-01-26T01:10:36.232Z,99640.28
2023-01-26T01:13:23.280Z,99653.63
2023-01-26T01:16:13.494Z,99658.06
2023-01-26T01:19:00.500Z,99658.47
2023-01-26T01:21:47.713Z,99654.91
2023-01-26T01:24:35.458Z,99653.72
2023-01-26T01:27:22.543Z,99653.97
2023-01-26T01:30:10.785Z,99645.19
2023-01-26T01:32:58.062Z,99643.69
2023-01-26T01:35:45.163Z,99645.06
2023-01-26T01:38:32.560Z,99645.56
2023-01-26T01:41:22.894Z,99647.03
2023-01-26T01:44:15.704Z,99638.63
2023-01-26T01:47:09.623Z,99648.91
2023-01-26T01:49:56.819Z,99630.56
2023-01-26T01:52:44.237Z,99622.44
2023-01-26T01:55:32.223Z,99617.78
2023-01-26T01:58:20.042Z,99632.00
2023-01-26T02:01:07.602Z,99622.56
2023-01-26T02:04:00.746Z,99626.63
2023-01-26T02:06:51.428Z,99611.41
2023-01-26T02:09:59.112Z,99619.78
2023-01-26T02:12:53.756Z,99624.84
2023-01-26T02:15:40.933Z,99613.56
2023-01-26T02:18:28.923Z,99614.66
2023-01-26T02:21:19.846Z,99617.78
2023-01-26T02:24:06.938Z,99618.41
2023-01-26T02:26:54.861Z,99605.81
2023-01-26T02:29:42.210Z,99601.44
2023-01-26T02:32:29.355Z,99584.03
2023-01-26T02:35:16.786Z,99598.88
2023-01-26T02:38:03.865Z,99599.72
2023-01-26T02:40:55.525Z,99600.50
2023-01-26T02:43:42.634Z,99580.72
2023-01-26T02:46:29.801Z,99584.81
2023-01-26T02:49:35.753Z,99574.97
2023-01-26T02:52:26.076Z,99585.44
2023-01-26T02:55:22.466Z,99575.59
2023-01-26T02:58:09.560Z,99557.88
2023-01-26T03:00:56.671Z,99574.25
2023-01-26T03:03:45.278Z,99579.00
2023-01-26T03:06:32.495Z,99579.88
2023-01-26T03:09:19.763Z,99573.00
2023-01-26T03:12:07.112Z,99573.41
2023-01-26T03:15:12.787Z,99561.75
2023-01-26T03:18:27.383Z,99562.75
2023-01-26T03:21:35.036Z,99573.03
2023-01-26T03:24:40.609Z,99575.44
2023-01-26T03:27:29.013Z,99566.03
2023-01-26T03:30:18.799Z,99569.59
2023-01-26T03:33:06.521Z,99557.53
2023-01-26T03:35:54.824Z,99567.09
2023-01-26T03:38:41.979Z,99559.25
2023-01-26T03:41:47.541Z,99561.81
2023-01-26T03:44:53.234Z,99551.97
2023-01-26T03:47:58.973Z,99551.75
2023-01-26T03:51:04.626Z,99549.72
2023-01-26T03:54:10.386Z,99534.81
2023-01-26T03:56:57.559Z,99543.41
2023-01-26T03:59:44.790Z,99545.13
2023-01-26T04:02:50.758Z,99552.66
2023-01-26T04:05:56.332Z,99538.38
2023-01-26T04:09:03.013Z,99552.59
2023-01-26T04:11:50.053Z,99537.97
2023-01-26T04:14:55.687Z,99538.06
2023-01-26T04:18:01.201Z,99528.19
2023-01-26T04:21:06.922Z,99531.53
2023-01-26T04:23:57.492Z,99527.97
2023-01-26T04:26:44.822Z,99523.59
2023-01-26T04:29:31.901Z,99530.53
2023-01-26T04:32:19.065Z,99523.59
2023-01-26T04:35:07.466Z,99522.38
2023-01-26T04:37:54.570Z,99518.16
2023-01-26T04:40:41.661Z,99514.91
2023-01-26T04:43:28.885Z,99503.63
2023-01-26T04:46:16.592Z,99514.75
2023-01-26T04:49:03.716Z,99504.34
2023-01-26T04:51:50.794Z,99509.38
2023-01-26T04:54:38.009Z,99504.25
2023-01-26T04:57:25.099Z,99511.25
2023-01-26T05:00:12.851Z,99514.91
2023-01-26T05:03:00.100Z,99494.84
2023-01-26T05:05:52.822Z,99513.66
2023-01-26T05:08:39.958Z,99506.13
2023-01-26T05:11:27.055Z,99509.47
2023-01-26T05:14:15.499Z,99494.00
2023-01-26T05:17:02.593Z,99509.16
2023-01-26T05:19:49.612Z,99504.72
2023-01-26T05:22:36.791Z,99496.03
2023-01-26T05:25:24.619Z,99509.88
2023-01-26T05:28:11.885Z,99505.34
2023-01-26T05:30:59.125Z,99499.44
2023-01-26T05:33:46.239Z,99494.00
2023-01-26T05:36:33.302Z,99497.50
2023-01-26T05:39:20.373Z,99511.34
2023-01-26T05:42:07.415Z,99498.53
2023-01-26T05:44:54.510Z,99500.38
2023-01-26T05:47:44.607Z,99498.53
2023-01-26T05:50:31.834Z,99499.13
2023-01-26T05:53:19.745Z,99502.44
2023-01-26T05:56:07.115Z,99499.50
2023-01-26T05:58:54.136Z,99492.44
2023-01-26T06:01:41.250Z,99501.47
2023-01-26T06:04:28.362Z,99505.81
2023-01-26T06:07:16.051Z,99515.38
2023-01-26T06:10:04.517Z,99505.81
2023-01-26T06:12:51.578Z,99506.53
2023-01-26T06:15:39.319Z,99495.25
2023-01-26T06:18:26.414Z,99507.38
2023-01-26T06:21:13.440Z,99512.81
2023-01-26T06:24:00.585Z,99503.09
2023-01-26T06:26:49.469Z,99508.06
2023-01-26T06:29:36.706Z,99514.22
2023-01-26T06:32:23.840Z,99516.69
2023-01-26T06:35:10.908Z,99514.00
2023-01-26T06:37:57.954Z,99503.56
2023-01-26T06:40:44.998Z,99487.72
2023-01-26T06:43:33.714Z,99491.13
2023-01-26T06:46:21.021Z,99500.34
2023-01-26T06:49:09.534Z,99494.81
2023-01-26T06:52:05.536Z,99500.81
2023-01-26T06:54:53.466Z,99506.25
2023-01-26T06:57:40.554Z,99497.91
2023-01-26T07:00:27.609Z,99496.84
2023-01-26T07:03:14.680Z,99498.66
2023-01-26T07:06:01.723Z,99501.59
2023-01-26T07:08:48.904Z,99505.56
2023-01-26T07:11:36.023Z,99507.50
2023-01-26T07:14:23.124Z,99498.97
2023-01-26T07:17:10.304Z,99489.97
2023-01-26T07:19:57.418Z,99488.94
2023-01-26T07:22:44.476Z,99495.59
2023-01-26T07:25:31.603Z,99501.81
2023-01-26T07:28:19.075Z,99495.84
2023-01-26T07:31:07.664Z,99500.97
2023-01-26T07:33:54.884Z,99500.13
2023-01-26T07:36:42.087Z,99500.41
2023-01-26T07:39:29.127Z,99483.63
2023-01-26T07:42:16.271Z,99490.63
2023-01-26T07:45:03.519Z,99489.84
2023-01-26T07:47:50.620Z,99496.94
2023-01-26T07:50:37.655Z,99489.19
2023-01-26T07:53:26.501Z,99489.28
2023-01-26T07:56:16.212Z,99504.22
2023-01-26T07:59:03.970Z,99491.41
2023-01-26T08:01:51.283Z,99493.44
2023-01-26T08:04:38.439Z,99502.22
2023-01-26T08:07:25.583Z,99496.06
2023-01-26T08:10:14.687Z,99484.72
2023-01-26T08:13:02.148Z,99486.22
2023-01-26T08:15:49.262Z,99473.44
2023-01-26T08:18:36.473Z,99468.41
2023-01-26T08:21:23.658Z,99476.25
2023-01-26T08:24:12.379Z,99474.53
2023-01-26T08:26:59.499Z,99473.16
2023-01-26T08:29:46.571Z,99466.19
2023-01-26T08:32:33.731Z,99459.59
2023-01-26T08:35:20.779Z,99475.03
2023-01-26T08:38:07.967Z,99466.06
2023-01-26T08:40:55.002Z,99473.59
2023-01-26T08:43:42.220Z,99474.31
2023-01-26T08:46:29.393Z,99466.69
2023-01-26T08:49:16.616Z,99457.91
2023-01-26T08:52:04.041Z,99459.47
2023-01-26T08:54:51.175Z,99459.06
2023-01-26T08:57:38.264Z,99455.25
2023-01-26T09:00:25.627Z,99453.63
2023-01-26T09:03:13.037Z,99464.66
2023-01-26T09:06:01.818Z,99469.63
2023-01-26T09:08:48.927Z,99452.47
2023-01-26T09:11:36.020Z,99459.22
2023-01-26T09:14:24.015Z,99472.97
2023-01-26T09:17:11.116Z,99471.13
2023-01-26T09:19:58.206Z,99481.38
2023-01-26T09:22:45.850Z,99470.03
2023-01-26T09:25:36.113Z,99466.38
2023-01-26T09:28:23.104Z,99482.22
2023-01-26T09:31:11.565Z,99482.94
2023-01-26T09:33:58.720Z,99470.44
2023-01-26T09:36:46.001Z,99469.34
2023-01-26T09:39:33.111Z,99464.38
2023-01-26T09:42:22.966Z,99477.56
2023-01-26T09:45:13.493Z,99473.06
2023-01-26T09:48:19.244Z,99473.34
2023-01-26T09:51:32.543Z,99468.53
2023-01-26T09:54:35.216Z,99479.56
2023-01-26T09:57:27.597Z,99460.28
2023-01-26T10:00:43.732Z,99446.22
2023-01-26T10:03:47.298Z,99469.50
2023-01-26T10:06:37.059Z,99455.84
2023-01-26T10:09:27.919Z,99461.47
2023-01-26T10:12:18.663Z,99463.81
2023-01-26T10:15:16.463Z,99458.84
2023-01-26T10:18:12.228Z,99445.28
2023-01-26T10:21:03.478Z,99435.88
2023-01-26T10:23:52.198Z,99445.38
2023-01-26T10:26:39.347Z,99436.59
2023-01-26T10:29:26.387Z,99438.63
2023-01-26T10:32:18.399Z,99436.00
2023-01-26T10:35:06.268Z,99430.88
2023-01-26T10:37:53.666Z,99424.06
2023-01-26T10:40:45.647Z,99424.56
2023-01-26T10:43:40.475Z,99427.97
2023-01-26T10:46:33.407Z,99433.56
2023-01-26T10:49:20.600Z,99413.28
2023-01-26T10:52:23.999Z,99416.53
2023-01-26T10:55:13.735Z,99400.91
2023-01-26T10:58:01.764Z,99397.41
2023-01-26T11:00:56.719Z,99410.63
2023-01-26T11:04:07.388Z,99395.41
2023-01-26T11:06:56.202Z,99410.22
2023-01-26T11:09:43.351Z,99399.88
2023-01-26T11:12:30.442Z,99388.13
2023-01-26T11:23:19.765Z,99370.31
2023-01-26T11:26:15.665Z,99381.53
2023-01-26T11:29:23.370Z,99378.41
2023-01-26T11:32:34.661Z,99376.88
2023-01-26T11:35:34.886Z,99366.38
2023-01-26T11:38:27.798Z,99365.88
2023-01-26T11:41:25.465Z,99364.50
2023-01-26T11:44:36.091Z,99359.56
2023-01-26T11:47:39.123Z,99351.78
2023-01-26T11:50:33.314Z,99358.44
2023-01-26T11:53:52.549Z,99353.16
2023-01-26T11:56:45.584Z,99348.66
2023-01-26T11:59:44.375Z,99341.66
2023-01-26T12:02:36.964Z,99336.88
2023-01-26T12:05:30.178Z,99332.28
2023-01-26T12:08:38.383Z,99335.56
2023-01-26T12:11:38.982Z,99340.09
2023-01-26T12:14:33.338Z,99333.72
2023-01-26T12:17:44.799Z,99333.25
2023-01-26T12:20:54.008Z,99341.09
2023-01-26T12:23:55.402Z,99328.88
2023-01-26T12:26:47.342Z,99326.25
2023-01-26T12:29:50.040Z,99310.25
2023-01-26T12:32:37.120Z,99320.09
2023-01-26T12:35:51.478Z,99319.84
2023-01-26T12:39:09.042Z,99327.94
2023-01-26T12:42:31.068Z,99312.03
2023-01-26T12:45:28.806Z,99320.13
2023-01-26T12:48:22.353Z,99321.41
2023-01-26T12:51:15.227Z,99310.59
2023-01-26T12:54:20.286Z,99321.59
2023-01-26T12:57:15.266Z,99313.31
2023-01-26T13:00:18.172Z,99318.09
2023-01-26T13:03:13.998Z,99322.41
2023-01-26T13:06:17.615Z,99326.13
2023-01-26T13:09:24.131Z,99328.28
2023-01-26T13:12:51.499Z,99327.63
2023-01-26T13:15:40.712Z,99319.59
2023-01-26T13:18:49.703Z,99321.63
2023-01-26T13:21:39.597Z,99323.19
2023-01-26T13:24:26.691Z,99323.25
2023-01-26T13:27:34.241Z,99312.22
2023-01-26T13:30:24.502Z,99318.44
2023-01-26T13:33:13.879Z,99315.88
2023-01-26T13:36:05.364Z,99318.19
2023-01-26T13:39:01.153Z,99321.94
2023-01-26T13:41:48.419Z,99313.78
2023-01-26T13:44:45.541Z,99326.44
2023-01-26T13:47:44.444Z,99327.06
2023-01-26T13:50:34.738Z,99298.94
2023-01-26T13:53:35.344Z,99333.53
2023-01-26T13:56:37.430Z,99329.63
2023-01-26T13:59:24.893Z,99329.81
2023-01-26T14:02:23.859Z,99330.13
2023-01-26T14:05:22.519Z,99322.28
2023-01-26T14:08:16.026Z,99325.38
2023-01-26T14:11:06.060Z,99322.03
2023-01-26T14:13:56.356Z,99322.03
2023-01-26T14:16:43.471Z,99331.81
2023-01-26T14:19:30.562Z,99314.88
2023-01-26T14:22:19.261Z,99323.72
2023-01-26T14:25:10.838Z,99317.75
2023-01-26T14:27:58.142Z,99329.88
2023-01-26T14:30:52.869Z,99324.16
2023-01-26T14:33:40.113Z,99326.53
2023-01-26T14:36:29.789Z,99328.88
2023-01-26T14:39:20.358Z,99320.25
2023-01-26T14:42:10.092Z,99335.66
2023-01-26T14:44:57.181Z,99344.72
2023-01-26T14:47:45.470Z,99331.00
2023-01-26T14:50:32.962Z,99337.13
2023-01-26T14:53:25.517Z,99331.75
2023-01-26T14:56:21.081Z,99334.56
2023-01-26T14:59:16.325Z,99322.72
2023-01-26T15:02:25.284Z,99321.41
2023-01-26T15:05:18.124Z,99333.63
2023-01-26T15:08:18.288Z,99326.56
2023-01-26T15:11:24.523Z,99329.81
2023-01-26T15:14:36.138Z,99329.69
2023-01-26T15:17:39.416Z,99333.03
2023-01-26T15:20:29.460Z,99327.81
2023-01-26T15:23:23.847Z,99338.41
2023-01-26T15:26:34.344Z,99324.81
2023-01-26T15:29:27.181Z,99337.09
2023-01-26T15:32:33.402Z,99331.66
2023-01-26T15:35:33.440Z,99337.09
2023-01-26T15:38:20.590Z,99307.16
2023-01-26T15:41:09.611Z,99328.00
2023-01-26T15:43:57.957Z,99334.22
2023-01-26T15:46:45.667Z,99341.53
2023-01-26T15:49:32.792Z,99340.28
2023-01-26T15:52:24.918Z,99343.00
2023-01-26T15:55:24.619Z,99332.59
2023-01-26T15:58:12.040Z,99335.47
2023-01-26T16:00:59.168Z,99331.97
2023-01-26T16:03:46.326Z,99325.69
2023-01-26T16:06:33.990Z,99345.56
2023-01-26T16:09:21.062Z,99343.09
2023-01-26T16:12:25.897Z,99334.06
2023-01-26T16:15:26.065Z,99353.50
2023-01-26T16:18:13.331Z,99332.94
2023-01-26T16:21:00.364Z,99349.50
2023-01-26T16:23:48.357Z,99350.44
2023-01-26T16:26:35.457Z,99345.56
2023-01-26T16:29:22.660Z,99346.91
2023-01-26T16:32:26.447Z,99352.47
2023-01-26T16:35:16.907Z,99335.31
2023-01-26T16:38:05.450Z,99340.19
2023-01-26T16:40:54.041Z,99349.41
2023-01-26T16:43:42.242Z,99350.34
2023-01-26T16:46:30.723Z,99350.69
2023-01-26T16:49:17.843Z,99346.75
2023-01-26T16:52:05.184Z,99340.75
2023-01-26T16:54:54.089Z,99339.53
2023-01-26T16:57:42.732Z,99351.41
2023-01-26T17:00:30.109Z,99340.06
2023-01-26T17:03:17.702Z,99341.53
2023-01-26T17:06:05.087Z,99345.41
2023-01-26T17:08:53.120Z,99346.50
2023-01-26T17:11:40.250Z,99337.72
2023-01-26T17:17:06.109Z,99337.88
2023-01-26T17:19:53.221Z,99351.38
2023-01-26T17:22:40.601Z,99347.19
2023-01-26T17:25:27.858Z,99350.06
2023-01-26T17:28:14.998Z,99356.31
2023-01-26T17:31:09.883Z,99340.28
2023-01-26T17:33:57.522Z,99345.31
2023-01-26T17:36:45.968Z,99351.19
2023-01-26T17:39:33.483Z,99347.44
2023-01-26T17:42:21.185Z,99348.53
2023-01-26T17:45:10.154Z,99344.97
2023-01-26T17:47:57.759Z,99337.72
2023-01-26T17:50:51.304Z,99346.13
2023-01-26T17:53:43.180Z,99352.34
2023-01-26T17:56:31.612Z,99342.41
2023-01-26T17:59:19.229Z,99343.44
2023-01-26T18:02:06.895Z,99341.03
2023-01-26T18:04:54.842Z,99332.44
2023-01-26T18:07:42.607Z,99321.34
2023-01-26T18:10:33.198Z,99316.13
2023-01-26T18:13:21.050Z,99334.13
2023-01-26T18:16:11.038Z,99335.84
2023-01-26T18:19:01.347Z,99337.09
2023-01-26T18:21:51.061Z,99326.94
2023-01-26T18:24:39.257Z,99344.78
2023-01-26T18:27:27.021Z,99339.41
2023-01-26T18:30:15.122Z,99336.41
2023-01-26T18:33:02.726Z,99345.19
2023-01-26T18:35:49.967Z,99344.50
2023-01-26T18:38:41.700Z,99351.19
2023-01-26T18:41:34.013Z,99349.31
2023-01-26T18:44:22.947Z,99345.28
2023-01-26T18:47:10.431Z,99350.06
2023-01-26T18:49:59.489Z,99330.88
2023-01-26T18:52:47.391Z,99344.75
2023-01-26T18:55:35.551Z,99347.47
2023-01-26T18:58:23.282Z,99324.53
2023-01-26T19:01:15.409Z,99321.25
2023-01-26T19:04:04.455Z,99339.22
2023-01-26T19:06:54.042Z,99317.47
2023-01-26T19:09:41.792Z,99340.03
2023-01-26T19:12:29.717Z,99325.47
2023-01-26T19:15:18.604Z,99321.16
2023-01-26T19:18:07.578Z,99328.31
2023-01-26T19:21:00.595Z,99328.28
2023-01-26T19:23:49.367Z,99338.41
2023-01-26T19:26:37.143Z,99329.22
2023-01-26T19:29:24.924Z,99318.72
2023-01-26T19:32:13.003Z,99324.75
2023-01-26T19:35:04.524Z,99319.72
2023-01-26T19:37:52.521Z,99312.34
2023-01-26T19:40:40.259Z,99321.38
2023-01-26T19:43:28.725Z,99324.78
2023-01-26T19:46:18.036Z,99328.16
2023-01-26T19:49:08.567Z,99307.69
2023-01-26T19:51:59.754Z,99315.34
2023-01-26T19:54:48.004Z,99316.09
2023-01-26T19:57:36.941Z,99319.47
2023-01-26T20:00:24.901Z,99320.31
2023-01-26T20:03:13.076Z,99311.66
2023-01-26T20:06:05.042Z,99310.31
2023-01-26T20:08:54.786Z,99314.88
2023-01-26T20:11:42.765Z,99311.78
2023-01-26T20:14:30.860Z,99321.44
2023-01-26T20:17:19.125Z,99318.25
2023-01-26T20:20:07.866Z,99318.63
2023-01-26T20:22:56.135Z,99316.75
2023-01-26T20:25:43.776Z,99307.34
2023-01-26T20:28:31.650Z,99310.06
2023-01-26T20:31:22.993Z,99316.13
2023-01-26T20:34:11.542Z,99317.25
2023-01-26T20:37:00.986Z,99316.16
2023-01-26T20:39:50.058Z,99306.75
2023-01-26T20:42:37.908Z,99315.19
2023-01-26T20:45:26.938Z,99310.31
2023-01-26T20:48:15.304Z,99314.44
2023-01-26T20:51:17.774Z,99307.44
2023-01-26T20:54:09.472Z,99303.84
2023-01-26T20:56:59.255Z,99315.28
2023-01-26T20:59:46.841Z,99309.09
2023-01-26T21:02:34.887Z,99305.59
2023-01-26T21:05:22.692Z,99300.31
2023-01-26T21:08:09.996Z,99308.94
2023-01-26T21:10:58.111Z,99307.66
2023-01-26T21:13:45.950Z,99304.25
2023-01-26T21:16:36.082Z,99306.81
2023-01-26T21:19:23.702Z,99308.38
2023-01-26T21:22:10.899Z,99288.81
2023-01-26T21:24:58.451Z,99305.28
2023-01-26T21:27:45.627Z,99307.69
2023-01-26T21:30:32.672Z,99299.16
2023-01-26T21:33:19.988Z,99292.31
2023-01-26T21:36:08.749Z,99299.75
2023-01-26T21:38:57.651Z,99303.41
2023-01-26T21:42:02.937Z,99301.53
2023-01-26T21:45:08.919Z,99305.97
2023-01-26T21:48:14.850Z,99298.81
2023-01-26T21:51:21.087Z,99306.38
2023-01-26T21:54:08.400Z,99303.03
2023-01-26T21:56:56.299Z,99301.00
2023-01-26T21:59:43.367Z,99303.97
2023-01-26T22:02:30.439Z,99298.38
2023-01-26T22:05:17.553Z,99295.81
2023-01-26T22:08:05.653Z,99282.75
2023-01-26T22:10:55.643Z,99299.38
2023-01-26T22:13:44.001Z,99293.00
2023-01-26T22:16:32.148Z,99300.16
2023-01-26T22:19:19.353Z,99295.41
2023-01-26T22:22:06.404Z,99288.56
2023-01-26T22:24:53.558Z,99293.00
2023-01-26T22:27:41.145Z,99295.03
2023-01-26T22:30:28.216Z,99291.13
2023-01-26T22:33:15.285Z,99290.97
2023-01-26T22:36:07.489Z,99295.31
2023-01-26T22:38:54.741Z,99290.69
2023-01-26T22:41:41.844Z,99289.25
2023-01-26T22:44:28.935Z,99282.34
2023-01-26T22:47:16.018Z,99286.88
2023-01-26T22:50:03.111Z,99280.34
2023-01-26T22:52:50.201Z,99286.41
2023-01-26T22:55:42.097Z,99284.31
2023-01-26T22:58:31.057Z,99281.66
2023-01-26T23:01:20.773Z,99285.84
2023-01-26T23:04:08.776Z,99270.50
2023-01-26T23:06:55.836Z,99277.63
2023-01-26T23:09:42.935Z,99286.16
2023-01-26T23:12:29.989Z,99279.34
2023-01-26T23:15:17.197Z,99278.16
2023-01-26T23:18:04.312Z,99272.13
2023-01-26T23:20:51.483Z,99278.09
2023-01-26T23:23:39.995Z,99265.22
2023-01-26T23:26:27.331Z,99255.66
2023-01-26T23:29:14.363Z,99263.50
2023-01-26T23:32:01.586Z,99261.56
2023-01-26T23:34:48.675Z,99258.84
2023-01-26T23:37:35.745Z,99257.38
2023-01-26T23:40:22.885Z,99271.09
2023-01-26T23:43:16.557Z,99268.47
2023-01-26T23:46:06.330Z,99278.16
2023-01-26T23:48:53.409Z,99271.34
2023-01-26T23:51:40.463Z,99267.75
2023-01-26T23:54:27.585Z,99275.69
2023-01-26T23:57:14.655Z,99266.06
